sensor_id;sensor_type;location;lat;lon;timestamp;P1;durP1;ratioP1;P2;durP2;ratioP2
40367;SDS011;26075;43.320;21.920;2023-11-21T00:04:42;114.53;;;69.50;;
40367;SDS011;26075;43.320;21.920;2023-11-21T00:09:43;85.43;;;54.05;;
40367;SDS011;26075;43.320;21.920;2023-11-21T00:14:44;73.47;;;48.95;;
40367;SDS011;26075;43.320;21.920;2023-11-21T00:19:45;78.55;;;52.03;;
40367;SDS011;26075;43.320;21.920;2023-11-21T00:24:47;83.40;;;52.40;;
40367;SDS011;26075;43.320;21.920;2023-11-21T00:29:48;72.10;;;45.70;;
40367;SDS011;26075;43.320;21.920;2023-11-21T00:34:49;71.22;;;45.78;;
40367;SDS011;26075;43.320;21.920;2023-11-21T00:39:50;71.20;;;45.67;;
40367;SDS011;26075;43.320;21.920;2023-11-21T00:44:51;98.97;;;61.15;;
40367;SDS011;26075;43.320;21.920;2023-11-21T00:49:53;111.72;;;70.72;;
40367;SDS011;26075;43.320;21.920;2023-11-21T00:54:54;110.05;;;69.70;;
40367;SDS011;26075;43.320;21.920;2023-11-21T00:59:55;114.45;;;68.07;;
40367;SDS011;26075;43.320;21.920;2023-11-21T01:04:56;99.30;;;63.30;;
40367;SDS011;26075;43.320;21.920;2023-11-21T01:09:57;89.30;;;57.88;;
40367;SDS011;26075;43.320;21.920;2023-11-21T01:14:58;75.88;;;48.33;;
40367;SDS011;26075;43.320;21.920;2023-11-21T01:20:01;85.68;;;53.78;;
40367;SDS011;26075;43.320;21.920;2023-11-21T01:25:03;97.22;;;59.35;;
40367;SDS011;26075;43.320;21.920;2023-11-21T01:30:08;80.45;;;50.75;;
40367;SDS011;26075;43.320;21.920;2023-11-21T01:35:10;82.68;;;51.42;;
40367;SDS011;26075;43.320;21.920;2023-11-21T01:40:11;97.45;;;57.45;;
40367;SDS011;26075;43.320;21.920;2023-11-21T01:45:14;92.07;;;53.15;;
40367;SDS011;26075;43.320;21.920;2023-11-21T01:50:16;84.28;;;53.90;;
40367;SDS011;26075;43.320;21.920;2023-11-21T01:55:17;96.82;;;55.50;;
40367;SDS011;26075;43.320;21.920;2023-11-21T02:00:19;80.88;;;44.08;;
40367;SDS011;26075;43.320;21.920;2023-11-21T02:05:20;63.25;;;37.63;;
40367;SDS011;26075;43.320;21.920;2023-11-21T02:10:22;48.30;;;30.17;;
40367;SDS011;26075;43.320;21.920;2023-11-21T02:15:23;49.20;;;32.08;;
40367;SDS011;26075;43.320;21.920;2023-11-21T02:20:27;47.53;;;28.58;;
40367;SDS011;26075;43.320;21.920;2023-11-21T02:25:30;52.70;;;31.23;;
40367;SDS011;26075;43.320;21.920;2023-11-21T02:30:31;49.25;;;28.88;;
40367;SDS011;26075;43.320;21.920;2023-11-21T02:35:32;43.25;;;24.40;;
40367;SDS011;26075;43.320;21.920;2023-11-21T02:40:35;35.88;;;23.52;;
40367;SDS011;26075;43.320;21.920;2023-11-21T02:45:36;32.95;;;20.48;;
40367;SDS011;26075;43.320;21.920;2023-11-21T02:50:37;34.05;;;23.65;;
40367;SDS011;26075;43.320;21.920;2023-11-21T02:55:38;34.85;;;21.77;;
40367;SDS011;26075;43.320;21.920;2023-11-21T03:00:39;35.78;;;22.38;;
40367;SDS011;26075;43.320;21.920;2023-11-21T03:05:41;34.92;;;22.25;;
40367;SDS011;26075;43.320;21.920;2023-11-21T03:10:43;34.55;;;23.35;;
40367;SDS011;26075;43.320;21.920;2023-11-21T03:15:44;33.92;;;21.42;;
40367;SDS011;26075;43.320;21.920;2023-11-21T03:20:46;28.27;;;18.00;;
40367;SDS011;26075;43.320;21.920;2023-11-21T03:25:47;26.05;;;15.32;;
40367;SDS011;26075;43.320;21.920;2023-11-21T03:30:49;23.20;;;14.50;;
40367;SDS011;26075;43.320;21.920;2023-11-21T03:35:50;19.20;;;12.68;;
40367;SDS011;26075;43.320;21.920;2023-11-21T03:40:53;26.35;;;17.77;;
40367;SDS011;26075;43.320;21.920;2023-11-21T03:45:54;27.02;;;17.60;;
40367;SDS011;26075;43.320;21.920;2023-11-21T03:50:55;23.67;;;16.13;;
40367;SDS011;26075;43.320;21.920;2023-11-21T03:55:57;26.58;;;16.17;;
40367;SDS011;26075;43.320;21.920;2023-11-21T04:00:58;20.48;;;13.90;;
40367;SDS011;26075;43.320;21.920;2023-11-21T04:05:59;24.00;;;14.70;;
40367;SDS011;26075;43.320;21.920;2023-11-21T04:11:01;21.33;;;14.02;;
40367;SDS011;26075;43.320;21.920;2023-11-21T04:16:02;21.58;;;14.82;;
40367;SDS011;26075;43.320;21.920;2023-11-21T04:21:04;23.58;;;14.68;;
40367;SDS011;26075;43.320;21.920;2023-11-21T04:26:05;22.77;;;15.27;;
40367;SDS011;26075;43.320;21.920;2023-11-21T04:31:06;20.90;;;14.40;;
40367;SDS011;26075;43.320;21.920;2023-11-21T04:36:08;20.15;;;13.48;;
40367;SDS011;26075;43.320;21.920;2023-11-21T04:41:09;20.45;;;13.32;;
40367;SDS011;26075;43.320;21.920;2023-11-21T04:46:10;24.63;;;13.80;;
40367;SDS011;26075;43.320;21.920;2023-11-21T04:51:11;19.40;;;11.52;;
40367;SDS011;26075;43.320;21.920;2023-11-21T04:56:12;17.08;;;11.60;;
40367;SDS011;26075;43.320;21.920;2023-11-21T05:01:14;13.88;;;9.25;;
40367;SDS011;26075;43.320;21.920;2023-11-21T05:06:15;14.05;;;8.60;;
40367;SDS011;26075;43.320;21.920;2023-11-21T05:11:23;13.23;;;8.55;;
40367;SDS011;26075;43.320;21.920;2023-11-21T05:16:25;13.00;;;8.38;;
40367;SDS011;26075;43.320;21.920;2023-11-21T05:26:33;13.23;;;9.00;;
40367;SDS011;26075;43.320;21.920;2023-11-21T05:31:34;15.05;;;9.63;;
40367;SDS011;26075;43.320;21.920;2023-11-21T05:36:35;19.83;;;12.50;;
40367;SDS011;26075;43.320;21.920;2023-11-21T05:41:36;21.52;;;14.05;;
40367;SDS011;26075;43.320;21.920;2023-11-21T05:46:38;28.17;;;17.85;;
40367;SDS011;26075;43.320;21.920;2023-11-21T05:51:39;23.00;;;16.23;;
40367;SDS011;26075;43.320;21.920;2023-11-21T05:56:40;29.40;;;18.52;;
40367;SDS011;26075;43.320;21.920;2023-11-21T06:01:41;26.58;;;16.13;;
40367;SDS011;26075;43.320;21.920;2023-11-21T06:06:42;22.35;;;13.93;;
40367;SDS011;26075;43.320;21.920;2023-11-21T06:11:44;19.02;;;11.75;;
40367;SDS011;26075;43.320;21.920;2023-11-21T06:16:45;20.17;;;11.73;;
40367;SDS011;26075;43.320;21.920;2023-11-21T06:21:46;19.60;;;13.48;;
40367;SDS011;26075;43.320;21.920;2023-11-21T06:26:47;16.85;;;12.77;;
40367;SDS011;26075;43.320;21.920;2023-11-21T06:31:49;19.48;;;12.05;;
40367;SDS011;26075;43.320;21.920;2023-11-21T06:36:50;30.88;;;16.85;;
40367;SDS011;26075;43.320;21.920;2023-11-21T06:41:51;31.60;;;18.48;;
40367;SDS011;26075;43.320;21.920;2023-11-21T06:46:52;25.70;;;16.90;;
40367;SDS011;26075;43.320;21.920;2023-11-21T06:51:54;43.83;;;16.83;;
40367;SDS011;26075;43.320;21.920;2023-11-21T06:56:55;37.90;;;15.13;;
40367;SDS011;26075;43.320;21.920;2023-11-21T07:01:57;22.83;;;14.65;;
40367;SDS011;26075;43.320;21.920;2023-11-21T07:06:58;25.83;;;15.55;;
40367;SDS011;26075;43.320;21.920;2023-11-21T07:11:59;23.95;;;14.82;;
40367;SDS011;26075;43.320;21.920;2023-11-21T07:17:00;30.25;;;14.02;;
40367;SDS011;26075;43.320;21.920;2023-11-21T07:22:01;25.45;;;14.20;;
40367;SDS011;26075;43.320;21.920;2023-11-21T07:27:02;23.02;;;12.82;;
40367;SDS011;26075;43.320;21.920;2023-11-21T07:32:04;18.13;;;11.63;;
40367;SDS011;26075;43.320;21.920;2023-11-21T07:37:05;21.27;;;11.75;;
40367;SDS011;26075;43.320;21.920;2023-11-21T07:42:06;17.55;;;11.68;;
40367;SDS011;26075;43.320;21.920;2023-11-21T07:47:07;19.08;;;11.10;;
40367;SDS011;26075;43.320;21.920;2023-11-21T07:52:09;19.15;;;9.55;;
40367;SDS011;26075;43.320;21.920;2023-11-21T07:57:10;12.85;;;6.90;;
40367;SDS011;26075;43.320;21.920;2023-11-21T08:02:13;12.77;;;7.70;;
40367;SDS011;26075;43.320;21.920;2023-11-21T08:07:17;11.93;;;7.65;;
40367;SDS011;26075;43.320;21.920;2023-11-21T08:12:18;13.00;;;7.55;;
40367;SDS011;26075;43.320;21.920;2023-11-21T08:17:20;11.98;;;7.13;;
40367;SDS011;26075;43.320;21.920;2023-11-21T08:22:21;10.95;;;7.05;;
40367;SDS011;26075;43.320;21.920;2023-11-21T08:27:23;15.25;;;7.68;;
40367;SDS011;26075;43.320;21.920;2023-11-21T08:32:24;11.90;;;7.15;;
40367;SDS011;26075;43.320;21.920;2023-11-21T08:37:25;16.92;;;8.90;;
40367;SDS011;26075;43.320;21.920;2023-11-21T08:42:30;14.30;;;8.87;;
40367;SDS011;26075;43.320;21.920;2023-11-21T08:47:31;17.70;;;9.10;;
40367;SDS011;26075;43.320;21.920;2023-11-21T08:52:32;14.45;;;8.85;;
40367;SDS011;26075;43.320;21.920;2023-11-21T08:57:34;12.20;;;6.93;;
40367;SDS011;26075;43.320;21.920;2023-11-21T09:02:35;14.98;;;6.63;;
40367;SDS011;26075;43.320;21.920;2023-11-21T09:07:38;12.77;;;7.13;;
40367;SDS011;26075;43.320;21.920;2023-11-21T09:12:39;16.80;;;8.30;;
40367;SDS011;26075;43.320;21.920;2023-11-21T09:17:40;14.68;;;8.55;;
40367;SDS011;26075;43.320;21.920;2023-11-21T09:22:42;13.13;;;7.78;;
40367;SDS011;26075;43.320;21.920;2023-11-21T09:27:44;10.35;;;6.93;;
40367;SDS011;26075;43.320;21.920;2023-11-21T09:32:46;11.35;;;7.50;;
40367;SDS011;26075;43.320;21.920;2023-11-21T09:37:47;12.93;;;7.60;;
40367;SDS011;26075;43.320;21.920;2023-11-21T09:42:55;12.85;;;7.10;;
40367;SDS011;26075;43.320;21.920;2023-11-21T09:47:59;13.38;;;7.57;;
40367;SDS011;26075;43.320;21.920;2023-11-21T09:58:06;12.10;;;7.87;;
40367;SDS011;26075;43.320;21.920;2023-11-21T10:03:08;11.85;;;7.93;;
40367;SDS011;26075;43.320;21.920;2023-11-21T10:08:10;13.45;;;8.38;;
40367;SDS011;26075;43.320;21.920;2023-11-21T10:13:12;18.90;;;9.18;;
40367;SDS011;26075;43.320;21.920;2023-11-21T10:18:17;21.00;;;9.07;;
40367;SDS011;26075;43.320;21.920;2023-11-21T10:23:19;48.05;;;30.88;;
40367;SDS011;26075;43.320;21.920;2023-11-21T10:28:21;57.72;;;35.55;;
40367;SDS011;26075;43.320;21.920;2023-11-21T10:33:28;70.40;;;42.22;;
40367;SDS011;26075;43.320;21.920;2023-11-21T10:38:32;72.05;;;44.53;;
40367;SDS011;26075;43.320;21.920;2023-11-21T10:43:42;70.00;;;41.75;;
40367;SDS011;26075;43.320;21.920;2023-11-21T10:48:44;62.03;;;38.72;;
40367;SDS011;26075;43.320;21.920;2023-11-21T10:53:46;61.80;;;37.28;;
40367;SDS011;26075;43.320;21.920;2023-11-21T10:58:51;53.72;;;35.50;;
40367;SDS011;26075;43.320;21.920;2023-11-21T11:03:52;66.63;;;39.92;;
40367;SDS011;26075;43.320;21.920;2023-11-21T11:08:54;52.30;;;33.30;;
40367;SDS011;26075;43.320;21.920;2023-11-21T11:13:55;59.45;;;34.85;;
40367;SDS011;26075;43.320;21.920;2023-11-21T11:18:57;54.28;;;34.75;;
40367;SDS011;26075;43.320;21.920;2023-11-21T11:24:03;49.90;;;30.00;;
40367;SDS011;26075;43.320;21.920;2023-11-21T11:34:34;42.75;;;27.02;;
40367;SDS011;26075;43.320;21.920;2023-11-21T11:39:38;48.33;;;30.85;;
40367;SDS011;26075;43.320;21.920;2023-11-21T11:50:07;48.75;;;30.65;;
40367;SDS011;26075;43.320;21.920;2023-11-21T11:55:21;53.25;;;34.92;;
40367;SDS011;26075;43.320;21.920;2023-11-21T12:05:31;75.50;;;43.30;;
40367;SDS011;26075;43.320;21.920;2023-11-21T12:10:36;56.92;;;36.35;;
40367;SDS011;26075;43.320;21.920;2023-11-21T12:15:37;63.35;;;40.88;;
40367;SDS011;26075;43.320;21.920;2023-11-21T12:20:40;60.95;;;40.17;;
40367;SDS011;26075;43.320;21.920;2023-11-21T12:25:42;66.38;;;43.03;;
40367;SDS011;26075;43.320;21.920;2023-11-21T12:30:44;68.88;;;45.90;;
40367;SDS011;26075;43.320;21.920;2023-11-21T12:35:45;66.22;;;43.65;;
40367;SDS011;26075;43.320;21.920;2023-11-21T12:40:46;65.68;;;41.08;;
40367;SDS011;26075;43.320;21.920;2023-11-21T12:45:47;58.10;;;38.63;;
40367;SDS011;26075;43.320;21.920;2023-11-21T12:50:48;66.45;;;41.72;;
40367;SDS011;26075;43.320;21.920;2023-11-21T12:55:55;66.35;;;44.40;;
40367;SDS011;26075;43.320;21.920;2023-11-21T13:05:59;67.97;;;46.17;;
40367;SDS011;26075;43.320;21.920;2023-11-21T13:11:01;68.55;;;46.47;;
40367;SDS011;26075;43.320;21.920;2023-11-21T13:16:03;63.42;;;44.60;;
40367;SDS011;26075;43.320;21.920;2023-11-21T13:21:05;46.42;;;30.65;;
40367;SDS011;26075;43.320;21.920;2023-11-21T13:26:17;28.60;;;19.98;;
40367;SDS011;26075;43.320;21.920;2023-11-21T13:31:20;18.90;;;12.77;;
40367;SDS011;26075;43.320;21.920;2023-11-21T13:36:26;23.10;;;15.95;;
40367;SDS011;26075;43.320;21.920;2023-11-21T13:41:30;37.42;;;21.77;;
40367;SDS011;26075;43.320;21.920;2023-11-21T13:46:31;27.88;;;17.13;;
40367;SDS011;26075;43.320;21.920;2023-11-21T13:51:37;27.52;;;15.98;;
40367;SDS011;26075;43.320;21.920;2023-11-21T13:56:45;21.67;;;12.35;;
40367;SDS011;26075;43.320;21.920;2023-11-21T14:01:47;23.42;;;13.57;;
40367;SDS011;26075;43.320;21.920;2023-11-21T14:07:14;23.58;;;14.27;;
40367;SDS011;26075;43.320;21.920;2023-11-21T14:12:35;22.95;;;13.00;;
40367;SDS011;26075;43.320;21.920;2023-11-21T14:17:39;23.70;;;14.57;;
40367;SDS011;26075;43.320;21.920;2023-11-21T14:22:43;22.73;;;12.75;;
40367;SDS011;26075;43.320;21.920;2023-11-21T14:27:44;19.15;;;10.20;;
40367;SDS011;26075;43.320;21.920;2023-11-21T14:32:45;15.48;;;8.55;;
40367;SDS011;26075;43.320;21.920;2023-11-21T14:37:46;18.77;;;9.50;;
40367;SDS011;26075;43.320;21.920;2023-11-21T14:42:47;22.50;;;12.90;;
40367;SDS011;26075;43.320;21.920;2023-11-21T14:47:48;30.83;;;20.98;;
40367;SDS011;26075;43.320;21.920;2023-11-21T14:53:02;43.72;;;28.30;;
40367;SDS011;26075;43.320;21.920;2023-11-21T14:58:06;39.85;;;26.23;;
40367;SDS011;26075;43.320;21.920;2023-11-21T15:03:12;41.75;;;27.67;;
40367;SDS011;26075;43.320;21.920;2023-11-21T15:08:31;50.30;;;27.42;;
40367;SDS011;26075;43.320;21.920;2023-11-21T15:13:32;39.58;;;23.35;;
40367;SDS011;26075;43.320;21.920;2023-11-21T15:18:33;36.03;;;21.75;;
40367;SDS011;26075;43.320;21.920;2023-11-21T15:23:35;26.40;;;17.73;;
40367;SDS011;26075;43.320;21.920;2023-11-21T15:28:36;29.17;;;18.08;;
40367;SDS011;26075;43.320;21.920;2023-11-21T15:33:37;30.13;;;18.40;;
40367;SDS011;26075;43.320;21.920;2023-11-21T15:38:39;25.98;;;18.42;;
40367;SDS011;26075;43.320;21.920;2023-11-21T15:43:40;15.02;;;9.27;;
40367;SDS011;26075;43.320;21.920;2023-11-21T15:48:41;26.02;;;15.02;;
40367;SDS011;26075;43.320;21.920;2023-11-21T15:53:49;25.75;;;16.42;;
40367;SDS011;26075;43.320;21.920;2023-11-21T15:58:52;29.05;;;18.55;;
40367;SDS011;26075;43.320;21.920;2023-11-21T16:03:53;32.72;;;20.95;;
40367;SDS011;26075;43.320;21.920;2023-11-21T16:08:54;38.38;;;24.45;;
40367;SDS011;26075;43.320;21.920;2023-11-21T16:13:58;34.50;;;22.67;;
40367;SDS011;26075;43.320;21.920;2023-11-21T16:18:59;41.17;;;26.08;;
40367;SDS011;26075;43.320;21.920;2023-11-21T16:24:00;38.60;;;24.73;;
40367;SDS011;26075;43.320;21.920;2023-11-21T16:29:01;34.60;;;25.38;;
40367;SDS011;26075;43.320;21.920;2023-11-21T16:34:04;37.55;;;24.75;;
40367;SDS011;26075;43.320;21.920;2023-11-21T16:39:11;33.55;;;21.73;;
40367;SDS011;26075;43.320;21.920;2023-11-21T16:44:19;29.15;;;19.25;;
40367;SDS011;26075;43.320;21.920;2023-11-21T16:49:20;29.48;;;20.58;;
40367;SDS011;26075;43.320;21.920;2023-11-21T16:54:21;34.70;;;22.80;;
40367;SDS011;26075;43.320;21.920;2023-11-21T16:59:22;60.75;;;37.03;;
40367;SDS011;26075;43.320;21.920;2023-11-21T17:04:24;55.13;;;37.05;;
40367;SDS011;26075;43.320;21.920;2023-11-21T17:09:25;47.13;;;30.40;;
40367;SDS011;26075;43.320;21.920;2023-11-21T17:14:26;39.85;;;25.45;;
40367;SDS011;26075;43.320;21.920;2023-11-21T17:19:27;33.42;;;24.25;;
40367;SDS011;26075;43.320;21.920;2023-11-21T17:24:32;37.15;;;24.83;;
40367;SDS011;26075;43.320;21.920;2023-11-21T17:29:36;36.83;;;25.58;;
40367;SDS011;26075;43.320;21.920;2023-11-21T17:34:38;44.13;;;27.27;;
40367;SDS011;26075;43.320;21.920;2023-11-21T17:39:39;47.08;;;31.35;;
40367;SDS011;26075;43.320;21.920;2023-11-21T17:44:40;53.88;;;33.28;;
40367;SDS011;26075;43.320;21.920;2023-11-21T17:49:41;40.92;;;26.23;;
40367;SDS011;26075;43.320;21.920;2023-11-21T17:54:42;52.50;;;31.23;;
40367;SDS011;26075;43.320;21.920;2023-11-21T17:59:43;44.80;;;31.08;;
40367;SDS011;26075;43.320;21.920;2023-11-21T18:04:47;40.80;;;25.38;;
40367;SDS011;26075;43.320;21.920;2023-11-21T18:09:49;36.13;;;22.38;;
40367;SDS011;26075;43.320;21.920;2023-11-21T18:14:50;29.83;;;18.55;;
40367;SDS011;26075;43.320;21.920;2023-11-21T18:19:51;26.42;;;17.50;;
40367;SDS011;26075;43.320;21.920;2023-11-21T18:24:55;25.92;;;17.40;;
40367;SDS011;26075;43.320;21.920;2023-11-21T18:29:56;24.70;;;15.68;;
40367;SDS011;26075;43.320;21.920;2023-11-21T18:35:00;24.27;;;15.60;;
40367;SDS011;26075;43.320;21.920;2023-11-21T18:40:01;22.45;;;15.13;;
40367;SDS011;26075;43.320;21.920;2023-11-21T18:45:04;19.65;;;13.18;;
40367;SDS011;26075;43.320;21.920;2023-11-21T18:50:07;33.85;;;19.02;;
40367;SDS011;26075;43.320;21.920;2023-11-21T18:55:10;19.05;;;13.43;;
40367;SDS011;26075;43.320;21.920;2023-11-21T19:00:11;23.63;;;14.18;;
40367;SDS011;26075;43.320;21.920;2023-11-21T19:05:14;19.60;;;11.85;;
40367;SDS011;26075;43.320;21.920;2023-11-21T19:10:15;25.30;;;14.52;;
40367;SDS011;26075;43.320;21.920;2023-11-21T19:15:19;27.33;;;16.98;;
40367;SDS011;26075;43.320;21.920;2023-11-21T19:20:20;26.80;;;16.08;;
40367;SDS011;26075;43.320;21.920;2023-11-21T19:25:23;29.58;;;19.65;;
40367;SDS011;26075;43.320;21.920;2023-11-21T19:30:24;37.45;;;23.55;;
40367;SDS011;26075;43.320;21.920;2023-11-21T19:35:25;35.97;;;24.23;;
40367;SDS011;26075;43.320;21.920;2023-11-21T19:40:28;40.97;;;25.13;;
40367;SDS011;26075;43.320;21.920;2023-11-21T19:45:29;25.75;;;18.15;;
40367;SDS011;26075;43.320;21.920;2023-11-21T19:50:31;22.60;;;14.88;;
40367;SDS011;26075;43.320;21.920;2023-11-21T19:55:33;22.25;;;14.80;;
40367;SDS011;26075;43.320;21.920;2023-11-21T20:00:34;16.80;;;11.93;;
40367;SDS011;26075;43.320;21.920;2023-11-21T20:05:36;18.67;;;9.82;;
40367;SDS011;26075;43.320;21.920;2023-11-21T20:10:37;15.82;;;10.23;;
40367;SDS011;26075;43.320;21.920;2023-11-21T20:15:42;16.70;;;10.13;;
40367;SDS011;26075;43.320;21.920;2023-11-21T20:20:44;16.20;;;9.43;;
40367;SDS011;26075;43.320;21.920;2023-11-21T20:25:45;22.60;;;12.25;;
40367;SDS011;26075;43.320;21.920;2023-11-21T20:30:46;23.77;;;17.23;;
40367;SDS011;26075;43.320;21.920;2023-11-21T20:35:49;37.13;;;22.75;;
40367;SDS011;26075;43.320;21.920;2023-11-21T20:40:51;35.10;;;23.50;;
40367;SDS011;26075;43.320;21.920;2023-11-21T20:45:52;32.67;;;18.33;;
40367;SDS011;26075;43.320;21.920;2023-11-21T20:50:53;24.52;;;15.43;;
40367;SDS011;26075;43.320;21.920;2023-11-21T20:55:55;22.77;;;14.00;;
40367;SDS011;26075;43.320;21.920;2023-11-21T21:00:59;21.33;;;13.98;;
40367;SDS011;26075;43.320;21.920;2023-11-21T21:06:00;25.10;;;15.95;;
40367;SDS011;26075;43.320;21.920;2023-11-21T21:11:01;25.05;;;16.58;;
40367;SDS011;26075;43.320;21.920;2023-11-21T21:16:03;24.63;;;16.75;;
40367;SDS011;26075;43.320;21.920;2023-11-21T21:21:04;29.58;;;19.15;;
40367;SDS011;26075;43.320;21.920;2023-11-21T21:26:05;27.75;;;18.40;;
40367;SDS011;26075;43.320;21.920;2023-11-21T21:31:09;28.83;;;19.20;;
40367;SDS011;26075;43.320;21.920;2023-11-21T21:36:12;26.75;;;17.42;;
40367;SDS011;26075;43.320;21.920;2023-11-21T21:41:15;25.67;;;18.52;;
40367;SDS011;26075;43.320;21.920;2023-11-21T21:46:18;28.77;;;17.73;;
40367;SDS011;26075;43.320;21.920;2023-11-21T21:51:20;29.50;;;19.98;;
40367;SDS011;26075;43.320;21.920;2023-11-21T21:56:22;29.27;;;18.05;;
40367;SDS011;26075;43.320;21.920;2023-11-21T22:01:23;27.55;;;17.48;;
40367;SDS011;26075;43.320;21.920;2023-11-21T22:06:25;31.77;;;20.08;;
40367;SDS011;26075;43.320;21.920;2023-11-21T22:11:27;34.75;;;21.88;;
40367;SDS011;26075;43.320;21.920;2023-11-21T22:16:29;32.97;;;21.88;;
40367;SDS011;26075;43.320;21.920;2023-11-21T22:21:31;31.38;;;19.73;;
40367;SDS011;26075;43.320;21.920;2023-11-21T22:26:32;26.15;;;18.02;;
40367;SDS011;26075;43.320;21.920;2023-11-21T22:31:35;24.80;;;16.45;;
40367;SDS011;26075;43.320;21.920;2023-11-21T22:36:40;24.20;;;17.65;;
40367;SDS011;26075;43.320;21.920;2023-11-21T22:41:41;25.65;;;17.02;;
40367;SDS011;26075;43.320;21.920;2023-11-21T22:46:43;28.10;;;15.82;;
40367;SDS011;26075;43.320;21.920;2023-11-21T22:51:44;23.95;;;17.17;;
40367;SDS011;26075;43.320;21.920;2023-11-21T22:56:45;28.50;;;17.23;;
40367;SDS011;26075;43.320;21.920;2023-11-21T23:01:50;20.27;;;12.90;;
40367;SDS011;26075;43.320;21.920;2023-11-21T23:06:53;17.67;;;11.65;;
40367;SDS011;26075;43.320;21.920;2023-11-21T23:11:54;18.10;;;12.80;;
40367;SDS011;26075;43.320;21.920;2023-11-21T23:16:58;21.95;;;14.95;;
40367;SDS011;26075;43.320;21.920;2023-11-21T23:21:59;23.65;;;14.90;;
40367;SDS011;26075;43.320;21.920;2023-11-21T23:27:00;21.40;;;14.43;;
40367;SDS011;26075;43.320;21.920;2023-11-21T23:32:01;24.50;;;16.98;;
40367;SDS011;26075;43.320;21.920;2023-11-21T23:37:03;27.67;;;19.17;;
40367;SDS011;26075;43.320;21.920;2023-11-21T23:42:04;27.77;;;19.63;;
40367;SDS011;26075;43.320;21.920;2023-11-21T23:47:05;30.52;;;22.17;;
40367;SDS011;26075;43.320;21.920;2023-11-21T23:52:06;28.75;;;20.52;;
40367;SDS011;26075;43.320;21.920;2023-11-21T23:57:07;27.60;;;19.95;;
